sensor_id;sensor_type;location;lat;lon;timestamp;P1;durP1;ratioP1;P2;durP2;ratioP2
35847;SDS011;22332;51.954;20.118;2023-05-07T00:02:18;6.30;;;4.30;;
35847;SDS011;22332;51.954;20.118;2023-05-07T00:05:24;5.40;;;4.20;;
35847;SDS011;22332;51.954;20.118;2023-05-07T00:08:29;5.50;;;4.10;;
35847;SDS011;22332;51.954;20.118;2023-05-07T00:11:35;5.40;;;3.40;;
35847;SDS011;22332;51.954;20.118;2023-05-07T00:14:40;5.00;;;3.20;;
35847;SDS011;22332;51.954;20.118;2023-05-07T00:17:46;5.70;;;3.90;;
35847;SDS011;22332;51.954;20.118;2023-05-07T00:20:51;5.10;;;3.70;;
35847;SDS011;22332;51.954;20.118;2023-05-07T00:23:57;7.10;;;3.90;;
35847;SDS011;22332;51.954;20.118;2023-05-07T00:27:02;5.70;;;3.90;;
35847;SDS011;22332;51.954;20.118;2023-05-07T00:30:08;7.10;;;3.90;;
35847;SDS011;22332;51.954;20.118;2023-05-07T00:33:15;7.00;;;4.10;;
35847;SDS011;22332;51.954;20.118;2023-05-07T00:36:20;6.20;;;3.80;;
35847;SDS011;22332;51.954;20.118;2023-05-07T00:39:26;4.20;;;3.10;;
35847;SDS011;22332;51.954;20.118;2023-05-07T00:42:32;4.80;;;3.00;;
35847;SDS011;22332;51.954;20.118;2023-05-07T00:45:37;5.10;;;3.70;;
35847;SDS011;22332;51.954;20.118;2023-05-07T00:48:44;5.50;;;3.40;;
35847;SDS011;22332;51.954;20.118;2023-05-07T00:51:50;6.20;;;3.60;;
35847;SDS011;22332;51.954;20.118;2023-05-07T00:54:56;4.90;;;3.40;;
35847;SDS011;22332;51.954;20.118;2023-05-07T00:58:03;4.10;;;3.30;;
35847;SDS011;22332;51.954;20.118;2023-05-07T01:01:09;6.20;;;3.90;;
35847;SDS011;22332;51.954;20.118;2023-05-07T01:04:15;4.70;;;3.30;;
35847;SDS011;22332;51.954;20.118;2023-05-07T01:07:20;4.40;;;3.10;;
35847;SDS011;22332;51.954;20.118;2023-05-07T01:10:27;6.70;;;3.50;;
35847;SDS011;22332;51.954;20.118;2023-05-07T01:13:34;4.20;;;3.50;;
35847;SDS011;22332;51.954;20.118;2023-05-07T01:16:41;6.30;;;3.50;;
35847;SDS011;22332;51.954;20.118;2023-05-07T01:19:47;5.40;;;3.80;;
35847;SDS011;22332;51.954;20.118;2023-05-07T01:22:54;5.40;;;3.70;;
35847;SDS011;22332;51.954;20.118;2023-05-07T01:26:01;5.70;;;4.30;;
35847;SDS011;22332;51.954;20.118;2023-05-07T01:29:08;5.40;;;3.50;;
35847;SDS011;22332;51.954;20.118;2023-05-07T01:32:14;5.90;;;3.10;;
35847;SDS011;22332;51.954;20.118;2023-05-07T01:35:25;5.00;;;3.70;;
35847;SDS011;22332;51.954;20.118;2023-05-07T01:38:33;5.00;;;3.90;;
35847;SDS011;22332;51.954;20.118;2023-05-07T01:41:38;5.50;;;3.90;;
35847;SDS011;22332;51.954;20.118;2023-05-07T01:44:44;6.20;;;4.40;;
35847;SDS011;22332;51.954;20.118;2023-05-07T01:47:50;5.70;;;4.10;;
35847;SDS011;22332;51.954;20.118;2023-05-07T01:50:57;6.40;;;4.10;;
35847;SDS011;22332;51.954;20.118;2023-05-07T01:54:03;5.80;;;3.40;;
35847;SDS011;22332;51.954;20.118;2023-05-07T01:57:09;5.40;;;3.20;;
35847;SDS011;22332;51.954;20.118;2023-05-07T02:00:16;5.10;;;3.80;;
35847;SDS011;22332;51.954;20.118;2023-05-07T02:03:23;5.30;;;3.80;;
35847;SDS011;22332;51.954;20.118;2023-05-07T02:06:33;6.10;;;3.60;;
35847;SDS011;22332;51.954;20.118;2023-05-07T02:09:41;5.40;;;4.10;;
35847;SDS011;22332;51.954;20.118;2023-05-07T02:12:47;5.90;;;3.80;;
35847;SDS011;22332;51.954;20.118;2023-05-07T02:15:53;6.00;;;3.50;;
35847;SDS011;22332;51.954;20.118;2023-05-07T02:19:00;10.50;;;3.90;;
35847;SDS011;22332;51.954;20.118;2023-05-07T02:22:06;3.90;;;2.60;;
35847;SDS011;22332;51.954;20.118;2023-05-07T02:25:11;6.70;;;3.70;;
35847;SDS011;22332;51.954;20.118;2023-05-07T02:28:17;4.10;;;3.30;;
35847;SDS011;22332;51.954;20.118;2023-05-07T02:31:33;4.10;;;3.00;;
35847;SDS011;22332;51.954;20.118;2023-05-07T02:34:39;6.80;;;3.40;;
35847;SDS011;22332;51.954;20.118;2023-05-07T02:37:44;5.80;;;3.80;;
35847;SDS011;22332;51.954;20.118;2023-05-07T02:40:50;4.40;;;3.30;;
35847;SDS011;22332;51.954;20.118;2023-05-07T02:43:56;3.30;;;2.50;;
35847;SDS011;22332;51.954;20.118;2023-05-07T02:47:02;4.80;;;2.80;;
35847;SDS011;22332;51.954;20.118;2023-05-07T02:50:11;4.60;;;3.00;;
35847;SDS011;22332;51.954;20.118;2023-05-07T02:53:17;3.80;;;2.90;;
35847;SDS011;22332;51.954;20.118;2023-05-07T02:56:25;4.70;;;3.00;;
35847;SDS011;22332;51.954;20.118;2023-05-07T02:59:30;4.50;;;3.60;;
35847;SDS011;22332;51.954;20.118;2023-05-07T03:02:36;3.90;;;3.00;;
35847;SDS011;22332;51.954;20.118;2023-05-07T03:05:42;4.50;;;3.40;;
35847;SDS011;22332;51.954;20.118;2023-05-07T03:08:48;4.30;;;2.80;;
35847;SDS011;22332;51.954;20.118;2023-05-07T03:11:53;3.80;;;2.90;;
35847;SDS011;22332;51.954;20.118;2023-05-07T03:14:59;4.90;;;3.10;;
35847;SDS011;22332;51.954;20.118;2023-05-07T03:18:05;4.00;;;3.20;;
35847;SDS011;22332;51.954;20.118;2023-05-07T03:21:11;4.20;;;2.70;;
35847;SDS011;22332;51.954;20.118;2023-05-07T03:24:16;4.30;;;3.20;;
35847;SDS011;22332;51.954;20.118;2023-05-07T03:27:22;3.90;;;3.10;;
35847;SDS011;22332;51.954;20.118;2023-05-07T03:30:28;4.30;;;3.60;;
35847;SDS011;22332;51.954;20.118;2023-05-07T03:33:34;4.50;;;3.10;;
35847;SDS011;22332;51.954;20.118;2023-05-07T03:36:42;4.70;;;2.80;;
35847;SDS011;22332;51.954;20.118;2023-05-07T03:39:49;3.80;;;3.10;;
35847;SDS011;22332;51.954;20.118;2023-05-07T03:42:55;4.10;;;3.10;;
35847;SDS011;22332;51.954;20.118;2023-05-07T03:46:02;4.20;;;2.80;;
35847;SDS011;22332;51.954;20.118;2023-05-07T03:49:07;4.20;;;3.10;;
35847;SDS011;22332;51.954;20.118;2023-05-07T03:52:13;4.30;;;2.90;;
35847;SDS011;22332;51.954;20.118;2023-05-07T03:55:19;3.40;;;2.80;;
35847;SDS011;22332;51.954;20.118;2023-05-07T03:58:29;4.90;;;2.50;;
35847;SDS011;22332;51.954;20.118;2023-05-07T04:01:35;4.40;;;2.60;;
35847;SDS011;22332;51.954;20.118;2023-05-07T04:04:41;4.20;;;3.10;;
35847;SDS011;22332;51.954;20.118;2023-05-07T04:07:47;4.10;;;3.10;;
35847;SDS011;22332;51.954;20.118;2023-05-07T04:10:56;4.80;;;2.90;;
35847;SDS011;22332;51.954;20.118;2023-05-07T04:14:04;4.00;;;3.30;;
35847;SDS011;22332;51.954;20.118;2023-05-07T04:17:11;4.60;;;3.10;;
35847;SDS011;22332;51.954;20.118;2023-05-07T04:20:16;4.50;;;3.40;;
35847;SDS011;22332;51.954;20.118;2023-05-07T04:23:26;4.20;;;2.60;;
35847;SDS011;22332;51.954;20.118;2023-05-07T04:26:32;3.90;;;2.70;;
35847;SDS011;22332;51.954;20.118;2023-05-07T04:29:38;4.40;;;2.70;;
35847;SDS011;22332;51.954;20.118;2023-05-07T04:32:46;2.90;;;2.50;;
35847;SDS011;22332;51.954;20.118;2023-05-07T04:35:52;3.50;;;2.80;;
35847;SDS011;22332;51.954;20.118;2023-05-07T04:38:57;4.90;;;3.10;;
35847;SDS011;22332;51.954;20.118;2023-05-07T04:42:03;3.30;;;2.50;;
35847;SDS011;22332;51.954;20.118;2023-05-07T04:45:12;4.00;;;2.90;;
35847;SDS011;22332;51.954;20.118;2023-05-07T04:48:19;3.90;;;2.80;;
35847;SDS011;22332;51.954;20.118;2023-05-07T04:51:25;4.60;;;2.50;;
35847;SDS011;22332;51.954;20.118;2023-05-07T04:54:31;3.00;;;2.30;;
35847;SDS011;22332;51.954;20.118;2023-05-07T04:57:37;3.30;;;2.60;;
35847;SDS011;22332;51.954;20.118;2023-05-07T05:00:44;5.30;;;2.80;;
35847;SDS011;22332;51.954;20.118;2023-05-07T05:03:50;4.50;;;2.70;;
35847;SDS011;22332;51.954;20.118;2023-05-07T05:06:56;3.70;;;2.40;;
35847;SDS011;22332;51.954;20.118;2023-05-07T05:10:02;3.20;;;2.70;;
35847;SDS011;22332;51.954;20.118;2023-05-07T05:13:10;3.40;;;2.80;;
35847;SDS011;22332;51.954;20.118;2023-05-07T05:16:16;3.60;;;2.70;;
35847;SDS011;22332;51.954;20.118;2023-05-07T05:19:22;3.40;;;2.40;;
35847;SDS011;22332;51.954;20.118;2023-05-07T05:22:28;3.20;;;2.30;;
35847;SDS011;22332;51.954;20.118;2023-05-07T05:25:35;3.60;;;2.80;;
35847;SDS011;22332;51.954;20.118;2023-05-07T05:28:42;2.70;;;2.00;;
35847;SDS011;22332;51.954;20.118;2023-05-07T05:31:48;3.10;;;2.40;;
35847;SDS011;22332;51.954;20.118;2023-05-07T05:34:55;4.70;;;3.00;;
35847;SDS011;22332;51.954;20.118;2023-05-07T05:38:01;3.00;;;2.50;;
35847;SDS011;22332;51.954;20.118;2023-05-07T05:41:07;3.10;;;2.10;;
35847;SDS011;22332;51.954;20.118;2023-05-07T05:44:13;3.50;;;2.70;;
35847;SDS011;22332;51.954;20.118;2023-05-07T05:47:19;2.90;;;2.30;;
35847;SDS011;22332;51.954;20.118;2023-05-07T05:50:25;3.20;;;2.30;;
35847;SDS011;22332;51.954;20.118;2023-05-07T05:53:31;4.30;;;3.40;;
35847;SDS011;22332;51.954;20.118;2023-05-07T05:56:37;4.50;;;3.30;;
35847;SDS011;22332;51.954;20.118;2023-05-07T05:59:44;4.50;;;2.90;;
35847;SDS011;22332;51.954;20.118;2023-05-07T06:02:50;3.20;;;2.70;;
35847;SDS011;22332;51.954;20.118;2023-05-07T06:05:58;2.80;;;2.30;;
35847;SDS011;22332;51.954;20.118;2023-05-07T06:09:03;3.30;;;2.20;;
35847;SDS011;22332;51.954;20.118;2023-05-07T06:15:20;4.40;;;2.60;;
35847;SDS011;22332;51.954;20.118;2023-05-07T06:18:26;3.20;;;2.20;;
35847;SDS011;22332;51.954;20.118;2023-05-07T06:21:32;3.40;;;2.20;;
35847;SDS011;22332;51.954;20.118;2023-05-07T06:24:38;3.30;;;2.00;;
35847;SDS011;22332;51.954;20.118;2023-05-07T06:27:45;4.20;;;2.30;;
35847;SDS011;22332;51.954;20.118;2023-05-07T06:30:50;2.80;;;2.40;;
35847;SDS011;22332;51.954;20.118;2023-05-07T06:33:56;4.60;;;2.30;;
35847;SDS011;22332;51.954;20.118;2023-05-07T06:37:06;3.30;;;2.30;;
35847;SDS011;22332;51.954;20.118;2023-05-07T06:40:26;4.20;;;2.60;;
35847;SDS011;22332;51.954;20.118;2023-05-07T06:43:35;3.00;;;2.40;;
35847;SDS011;22332;51.954;20.118;2023-05-07T06:47:07;8.60;;;6.70;;
35847;SDS011;22332;51.954;20.118;2023-05-07T06:50:15;10.10;;;7.10;;
35847;SDS011;22332;51.954;20.118;2023-05-07T06:53:21;5.80;;;3.40;;
35847;SDS011;22332;51.954;20.118;2023-05-07T06:56:28;5.10;;;2.80;;
35847;SDS011;22332;51.954;20.118;2023-05-07T06:59:34;6.70;;;4.10;;
35847;SDS011;22332;51.954;20.118;2023-05-07T07:02:40;5.40;;;3.60;;
35847;SDS011;22332;51.954;20.118;2023-05-07T07:05:46;7.40;;;4.40;;
35847;SDS011;22332;51.954;20.118;2023-05-07T07:08:55;4.40;;;3.00;;
35847;SDS011;22332;51.954;20.118;2023-05-07T07:12:01;4.30;;;3.20;;
35847;SDS011;22332;51.954;20.118;2023-05-07T07:15:08;4.20;;;2.70;;
35847;SDS011;22332;51.954;20.118;2023-05-07T07:18:15;4.00;;;3.10;;
35847;SDS011;22332;51.954;20.118;2023-05-07T07:21:22;3.60;;;2.60;;
35847;SDS011;22332;51.954;20.118;2023-05-07T07:24:29;5.10;;;3.10;;
35847;SDS011;22332;51.954;20.118;2023-05-07T07:27:37;4.10;;;3.10;;
35847;SDS011;22332;51.954;20.118;2023-05-07T07:30:43;4.60;;;2.90;;
35847;SDS011;22332;51.954;20.118;2023-05-07T07:33:49;3.10;;;2.40;;
35847;SDS011;22332;51.954;20.118;2023-05-07T07:36:55;4.90;;;3.20;;
35847;SDS011;22332;51.954;20.118;2023-05-07T07:40:01;4.50;;;2.90;;
35847;SDS011;22332;51.954;20.118;2023-05-07T07:43:07;4.00;;;3.10;;
35847;SDS011;22332;51.954;20.118;2023-05-07T07:46:13;8.90;;;4.60;;
35847;SDS011;22332;51.954;20.118;2023-05-07T07:49:19;5.50;;;2.80;;
35847;SDS011;22332;51.954;20.118;2023-05-07T07:52:26;3.90;;;2.50;;
35847;SDS011;22332;51.954;20.118;2023-05-07T07:55:32;5.50;;;2.90;;
35847;SDS011;22332;51.954;20.118;2023-05-07T07:58:42;4.80;;;2.70;;
35847;SDS011;22332;51.954;20.118;2023-05-07T08:01:49;3.30;;;2.40;;
35847;SDS011;22332;51.954;20.118;2023-05-07T08:04:56;7.50;;;4.20;;
35847;SDS011;22332;51.954;20.118;2023-05-07T08:08:02;5.00;;;3.40;;
35847;SDS011;22332;51.954;20.118;2023-05-07T08:11:09;4.20;;;2.80;;
35847;SDS011;22332;51.954;20.118;2023-05-07T08:14:15;4.40;;;2.70;;
35847;SDS011;22332;51.954;20.118;2023-05-07T08:17:22;4.00;;;2.70;;
35847;SDS011;22332;51.954;20.118;2023-05-07T08:20:29;3.90;;;2.30;;
35847;SDS011;22332;51.954;20.118;2023-05-07T08:23:35;4.20;;;2.40;;
35847;SDS011;22332;51.954;20.118;2023-05-07T08:26:41;4.30;;;3.30;;
35847;SDS011;22332;51.954;20.118;2023-05-07T08:29:48;5.00;;;3.50;;
35847;SDS011;22332;51.954;20.118;2023-05-07T08:32:54;5.40;;;3.80;;
35847;SDS011;22332;51.954;20.118;2023-05-07T08:36:00;4.40;;;3.50;;
35847;SDS011;22332;51.954;20.118;2023-05-07T08:39:06;8.20;;;5.00;;
35847;SDS011;22332;51.954;20.118;2023-05-07T08:42:11;11.40;;;5.90;;
35847;SDS011;22332;51.954;20.118;2023-05-07T08:45:20;7.30;;;4.60;;
35847;SDS011;22332;51.954;20.118;2023-05-07T08:48:27;7.50;;;4.70;;
35847;SDS011;22332;51.954;20.118;2023-05-07T08:51:46;10.30;;;6.30;;
35847;SDS011;22332;51.954;20.118;2023-05-07T08:54:52;5.80;;;3.90;;
35847;SDS011;22332;51.954;20.118;2023-05-07T08:57:58;10.30;;;6.10;;
35847;SDS011;22332;51.954;20.118;2023-05-07T09:01:06;4.90;;;3.50;;
35847;SDS011;22332;51.954;20.118;2023-05-07T09:04:14;4.80;;;3.40;;
35847;SDS011;22332;51.954;20.118;2023-05-07T09:07:20;7.10;;;4.40;;
35847;SDS011;22332;51.954;20.118;2023-05-07T09:10:28;30.70;;;14.60;;
35847;SDS011;22332;51.954;20.118;2023-05-07T09:13:36;6.50;;;3.70;;
35847;SDS011;22332;51.954;20.118;2023-05-07T09:16:43;7.30;;;4.90;;
35847;SDS011;22332;51.954;20.118;2023-05-07T09:19:50;9.70;;;6.40;;
35847;SDS011;22332;51.954;20.118;2023-05-07T09:22:57;10.30;;;6.00;;
35847;SDS011;22332;51.954;20.118;2023-05-07T09:26:03;11.80;;;7.10;;
35847;SDS011;22332;51.954;20.118;2023-05-07T09:29:15;9.90;;;6.20;;
35847;SDS011;22332;51.954;20.118;2023-05-07T09:32:22;6.00;;;4.10;;
35847;SDS011;22332;51.954;20.118;2023-05-07T09:35:29;9.50;;;5.00;;
35847;SDS011;22332;51.954;20.118;2023-05-07T09:38:38;3.90;;;2.90;;
35847;SDS011;22332;51.954;20.118;2023-05-07T09:41:46;3.50;;;2.50;;
35847;SDS011;22332;51.954;20.118;2023-05-07T09:45:01;7.80;;;4.90;;
35847;SDS011;22332;51.954;20.118;2023-05-07T09:48:12;5.10;;;3.40;;
35847;SDS011;22332;51.954;20.118;2023-05-07T09:51:24;5.40;;;3.50;;
35847;SDS011;22332;51.954;20.118;2023-05-07T09:54:34;4.50;;;3.00;;
35847;SDS011;22332;51.954;20.118;2023-05-07T09:57:42;3.60;;;3.00;;
35847;SDS011;22332;51.954;20.118;2023-05-07T10:00:49;6.00;;;4.00;;
35847;SDS011;22332;51.954;20.118;2023-05-07T10:03:56;4.60;;;3.60;;
35847;SDS011;22332;51.954;20.118;2023-05-07T10:07:02;14.60;;;7.30;;
35847;SDS011;22332;51.954;20.118;2023-05-07T10:10:10;7.80;;;4.50;;
35847;SDS011;22332;51.954;20.118;2023-05-07T10:13:18;10.90;;;5.30;;
35847;SDS011;22332;51.954;20.118;2023-05-07T10:16:27;17.90;;;9.10;;
35847;SDS011;22332;51.954;20.118;2023-05-07T10:19:34;14.00;;;7.00;;
35847;SDS011;22332;51.954;20.118;2023-05-07T10:22:43;9.80;;;5.60;;
35847;SDS011;22332;51.954;20.118;2023-05-07T10:25:52;7.00;;;4.10;;
35847;SDS011;22332;51.954;20.118;2023-05-07T10:29:02;5.30;;;3.80;;
35847;SDS011;22332;51.954;20.118;2023-05-07T10:32:27;9.90;;;6.40;;
35847;SDS011;22332;51.954;20.118;2023-05-07T10:35:41;6.70;;;3.80;;
35847;SDS011;22332;51.954;20.118;2023-05-07T10:38:51;4.40;;;3.00;;
35847;SDS011;22332;51.954;20.118;2023-05-07T10:41:57;4.20;;;3.10;;
35847;SDS011;22332;51.954;20.118;2023-05-07T10:45:14;3.30;;;2.60;;
35847;SDS011;22332;51.954;20.118;2023-05-07T10:48:22;4.20;;;2.80;;
35847;SDS011;22332;51.954;20.118;2023-05-07T10:51:30;3.80;;;3.40;;
35847;SDS011;22332;51.954;20.118;2023-05-07T10:54:44;3.30;;;2.70;;
35847;SDS011;22332;51.954;20.118;2023-05-07T10:57:51;6.00;;;2.80;;
35847;SDS011;22332;51.954;20.118;2023-05-07T11:01:03;4.30;;;2.80;;
35847;SDS011;22332;51.954;20.118;2023-05-07T11:04:13;6.80;;;3.10;;
35847;SDS011;22332;51.954;20.118;2023-05-07T11:07:27;3.90;;;3.20;;
35847;SDS011;22332;51.954;20.118;2023-05-07T11:10:53;7.40;;;4.60;;
35847;SDS011;22332;51.954;20.118;2023-05-07T11:18:09;6.80;;;3.10;;
35847;SDS011;22332;51.954;20.118;2023-05-07T11:21:21;4.40;;;2.70;;
35847;SDS011;22332;51.954;20.118;2023-05-07T11:24:58;4.70;;;2.60;;
35847;SDS011;22332;51.954;20.118;2023-05-07T11:28:06;10.60;;;7.00;;
35847;SDS011;22332;51.954;20.118;2023-05-07T11:31:17;3.40;;;3.00;;
35847;SDS011;22332;51.954;20.118;2023-05-07T11:34:27;6.20;;;3.90;;
35847;SDS011;22332;51.954;20.118;2023-05-07T11:37:34;8.20;;;4.20;;
35847;SDS011;22332;51.954;20.118;2023-05-07T11:40:49;4.20;;;3.10;;
35847;SDS011;22332;51.954;20.118;2023-05-07T11:43:56;6.80;;;4.10;;
35847;SDS011;22332;51.954;20.118;2023-05-07T11:47:03;7.40;;;4.20;;
35847;SDS011;22332;51.954;20.118;2023-05-07T11:50:09;7.20;;;4.50;;
35847;SDS011;22332;51.954;20.118;2023-05-07T11:53:14;5.30;;;3.40;;
35847;SDS011;22332;51.954;20.118;2023-05-07T11:56:20;5.10;;;2.90;;
35847;SDS011;22332;51.954;20.118;2023-05-07T11:59:25;7.50;;;3.50;;
35847;SDS011;22332;51.954;20.118;2023-05-07T12:02:31;4.40;;;3.30;;
35847;SDS011;22332;51.954;20.118;2023-05-07T12:05:37;6.30;;;4.60;;
35847;SDS011;22332;51.954;20.118;2023-05-07T12:08:44;5.20;;;4.10;;
35847;SDS011;22332;51.954;20.118;2023-05-07T12:11:51;5.60;;;3.60;;
35847;SDS011;22332;51.954;20.118;2023-05-07T12:14:58;18.40;;;4.30;;
35847;SDS011;22332;51.954;20.118;2023-05-07T12:18:04;4.50;;;3.40;;
35847;SDS011;22332;51.954;20.118;2023-05-07T12:21:11;4.20;;;3.00;;
35847;SDS011;22332;51.954;20.118;2023-05-07T12:24:17;4.00;;;2.50;;
35847;SDS011;22332;51.954;20.118;2023-05-07T12:27:23;5.00;;;3.00;;
35847;SDS011;22332;51.954;20.118;2023-05-07T12:30:29;7.30;;;5.20;;
35847;SDS011;22332;51.954;20.118;2023-05-07T12:33:35;9.00;;;4.90;;
35847;SDS011;22332;51.954;20.118;2023-05-07T12:36:41;5.50;;;3.70;;
35847;SDS011;22332;51.954;20.118;2023-05-07T12:39:48;6.50;;;3.70;;
35847;SDS011;22332;51.954;20.118;2023-05-07T12:43:08;10.20;;;5.80;;
35847;SDS011;22332;51.954;20.118;2023-05-07T12:46:21;5.40;;;3.50;;
35847;SDS011;22332;51.954;20.118;2023-05-07T12:49:26;4.30;;;3.30;;
35847;SDS011;22332;51.954;20.118;2023-05-07T12:52:32;6.70;;;4.20;;
35847;SDS011;22332;51.954;20.118;2023-05-07T12:55:41;5.80;;;3.30;;
35847;SDS011;22332;51.954;20.118;2023-05-07T12:58:48;4.90;;;3.40;;
35847;SDS011;22332;51.954;20.118;2023-05-07T13:01:54;4.40;;;2.90;;
35847;SDS011;22332;51.954;20.118;2023-05-07T13:04:59;3.10;;;2.80;;
35847;SDS011;22332;51.954;20.118;2023-05-07T13:08:05;5.10;;;3.70;;
35847;SDS011;22332;51.954;20.118;2023-05-07T13:11:12;4.50;;;3.00;;
35847;SDS011;22332;51.954;20.118;2023-05-07T13:14:18;3.40;;;2.60;;
35847;SDS011;22332;51.954;20.118;2023-05-07T13:17:24;4.10;;;2.90;;
35847;SDS011;22332;51.954;20.118;2023-05-07T13:20:29;5.20;;;2.40;;
35847;SDS011;22332;51.954;20.118;2023-05-07T13:23:35;4.40;;;2.80;;
35847;SDS011;22332;51.954;20.118;2023-05-07T13:26:41;4.40;;;2.90;;
35847;SDS011;22332;51.954;20.118;2023-05-07T13:29:47;5.00;;;2.90;;
35847;SDS011;22332;51.954;20.118;2023-05-07T13:32:53;4.30;;;2.90;;
35847;SDS011;22332;51.954;20.118;2023-05-07T13:35:59;4.00;;;2.70;;
35847;SDS011;22332;51.954;20.118;2023-05-07T13:39:06;4.90;;;3.00;;
35847;SDS011;22332;51.954;20.118;2023-05-07T13:42:12;5.00;;;2.70;;
35847;SDS011;22332;51.954;20.118;2023-05-07T13:45:18;3.20;;;2.90;;
35847;SDS011;22332;51.954;20.118;2023-05-07T13:48:24;4.50;;;3.20;;
35847;SDS011;22332;51.954;20.118;2023-05-07T13:51:29;4.00;;;2.70;;
35847;SDS011;22332;51.954;20.118;2023-05-07T13:54:35;3.60;;;3.10;;
35847;SDS011;22332;51.954;20.118;2023-05-07T13:57:40;3.60;;;2.90;;
35847;SDS011;22332;51.954;20.118;2023-05-07T14:00:46;5.70;;;3.70;;
35847;SDS011;22332;51.954;20.118;2023-05-07T14:03:51;4.40;;;2.80;;
35847;SDS011;22332;51.954;20.118;2023-05-07T14:06:57;4.70;;;3.30;;
35847;SDS011;22332;51.954;20.118;2023-05-07T14:10:03;5.80;;;3.20;;
35847;SDS011;22332;51.954;20.118;2023-05-07T14:13:09;4.50;;;2.60;;
35847;SDS011;22332;51.954;20.118;2023-05-07T14:16:15;3.80;;;2.40;;
35847;SDS011;22332;51.954;20.118;2023-05-07T14:19:20;3.50;;;2.60;;
35847;SDS011;22332;51.954;20.118;2023-05-07T14:22:26;4.10;;;2.90;;
35847;SDS011;22332;51.954;20.118;2023-05-07T14:25:32;28.90;;;9.80;;
35847;SDS011;22332;51.954;20.118;2023-05-07T14:28:37;5.60;;;3.10;;
35847;SDS011;22332;51.954;20.118;2023-05-07T14:31:45;12.50;;;5.00;;
35847;SDS011;22332;51.954;20.118;2023-05-07T14:34:50;9.10;;;4.60;;
35847;SDS011;22332;51.954;20.118;2023-05-07T14:37:56;4.90;;;3.20;;
35847;SDS011;22332;51.954;20.118;2023-05-07T14:41:02;13.70;;;7.00;;
35847;SDS011;22332;51.954;20.118;2023-05-07T14:44:07;6.70;;;4.10;;
35847;SDS011;22332;51.954;20.118;2023-05-07T14:47:12;4.10;;;3.30;;
35847;SDS011;22332;51.954;20.118;2023-05-07T14:50:18;5.10;;;2.80;;
35847;SDS011;22332;51.954;20.118;2023-05-07T14:53:24;5.90;;;3.10;;
35847;SDS011;22332;51.954;20.118;2023-05-07T14:56:29;23.90;;;11.20;;
35847;SDS011;22332;51.954;20.118;2023-05-07T14:59:35;11.70;;;5.40;;
35847;SDS011;22332;51.954;20.118;2023-05-07T15:02:41;19.10;;;11.10;;
35847;SDS011;22332;51.954;20.118;2023-05-07T15:05:47;6.30;;;4.40;;
35847;SDS011;22332;51.954;20.118;2023-05-07T15:08:54;19.10;;;11.10;;
35847;SDS011;22332;51.954;20.118;2023-05-07T15:12:01;7.80;;;4.30;;
35847;SDS011;22332;51.954;20.118;2023-05-07T15:15:10;4.60;;;3.30;;
35847;SDS011;22332;51.954;20.118;2023-05-07T15:18:15;5.90;;;3.30;;
35847;SDS011;22332;51.954;20.118;2023-05-07T15:21:21;5.90;;;3.70;;
35847;SDS011;22332;51.954;20.118;2023-05-07T15:24:27;4.00;;;3.10;;
35847;SDS011;22332;51.954;20.118;2023-05-07T15:27:33;4.40;;;3.00;;
35847;SDS011;22332;51.954;20.118;2023-05-07T15:30:38;8.60;;;4.90;;
35847;SDS011;22332;51.954;20.118;2023-05-07T15:33:44;10.60;;;5.90;;
35847;SDS011;22332;51.954;20.118;2023-05-07T15:36:50;6.60;;;3.90;;
35847;SDS011;22332;51.954;20.118;2023-05-07T15:39:55;5.10;;;3.50;;
35847;SDS011;22332;51.954;20.118;2023-05-07T15:43:01;3.80;;;2.50;;
35847;SDS011;22332;51.954;20.118;2023-05-07T15:46:06;5.30;;;4.00;;
35847;SDS011;22332;51.954;20.118;2023-05-07T15:49:12;4.70;;;3.30;;
35847;SDS011;22332;51.954;20.118;2023-05-07T15:52:17;4.00;;;2.90;;
35847;SDS011;22332;51.954;20.118;2023-05-07T15:55:23;5.00;;;2.80;;
35847;SDS011;22332;51.954;20.118;2023-05-07T15:58:29;3.00;;;2.40;;
35847;SDS011;22332;51.954;20.118;2023-05-07T16:01:34;4.10;;;3.10;;
35847;SDS011;22332;51.954;20.118;2023-05-07T16:04:40;3.60;;;2.80;;
35847;SDS011;22332;51.954;20.118;2023-05-07T16:07:46;5.80;;;3.00;;
35847;SDS011;22332;51.954;20.118;2023-05-07T16:10:51;5.90;;;4.00;;
35847;SDS011;22332;51.954;20.118;2023-05-07T16:13:57;6.90;;;4.50;;
35847;SDS011;22332;51.954;20.118;2023-05-07T16:17:03;6.80;;;4.40;;
35847;SDS011;22332;51.954;20.118;2023-05-07T16:20:10;5.20;;;2.90;;
35847;SDS011;22332;51.954;20.118;2023-05-07T16:23:16;7.80;;;4.60;;
35847;SDS011;22332;51.954;20.118;2023-05-07T16:26:22;7.00;;;4.80;;
35847;SDS011;22332;51.954;20.118;2023-05-07T16:29:28;5.20;;;3.00;;
35847;SDS011;22332;51.954;20.118;2023-05-07T16:32:34;4.40;;;2.90;;
35847;SDS011;22332;51.954;20.118;2023-05-07T16:35:39;3.00;;;2.50;;
35847;SDS011;22332;51.954;20.118;2023-05-07T16:38:49;6.70;;;4.60;;
35847;SDS011;22332;51.954;20.118;2023-05-07T16:41:54;5.30;;;3.20;;
35847;SDS011;22332;51.954;20.118;2023-05-07T16:45:00;4.80;;;2.70;;
35847;SDS011;22332;51.954;20.118;2023-05-07T16:48:06;5.80;;;3.90;;
35847;SDS011;22332;51.954;20.118;2023-05-07T16:51:12;7.00;;;3.70;;
35847;SDS011;22332;51.954;20.118;2023-05-07T16:54:17;4.40;;;3.40;;
35847;SDS011;22332;51.954;20.118;2023-05-07T16:57:23;5.50;;;3.10;;
35847;SDS011;22332;51.954;20.118;2023-05-07T17:00:28;5.10;;;2.90;;
35847;SDS011;22332;51.954;20.118;2023-05-07T17:03:34;7.10;;;3.80;;
35847;SDS011;22332;51.954;20.118;2023-05-07T17:06:39;9.50;;;4.70;;
35847;SDS011;22332;51.954;20.118;2023-05-07T17:09:45;5.40;;;3.10;;
35847;SDS011;22332;51.954;20.118;2023-05-07T17:12:50;5.20;;;3.10;;
35847;SDS011;22332;51.954;20.118;2023-05-07T17:15:56;5.10;;;3.50;;
35847;SDS011;22332;51.954;20.118;2023-05-07T17:19:01;5.50;;;3.60;;
35847;SDS011;22332;51.954;20.118;2023-05-07T17:22:07;6.30;;;3.60;;
35847;SDS011;22332;51.954;20.118;2023-05-07T17:25:12;6.70;;;4.20;;
35847;SDS011;22332;51.954;20.118;2023-05-07T17:28:18;6.50;;;4.50;;
35847;SDS011;22332;51.954;20.118;2023-05-07T17:31:23;7.50;;;4.60;;
35847;SDS011;22332;51.954;20.118;2023-05-07T17:34:29;7.30;;;4.40;;
35847;SDS011;22332;51.954;20.118;2023-05-07T17:37:35;7.50;;;5.10;;
35847;SDS011;22332;51.954;20.118;2023-05-07T17:40:40;225.80;;;137.10;;
35847;SDS011;22332;51.954;20.118;2023-05-07T17:43:46;168.70;;;96.70;;
35847;SDS011;22332;51.954;20.118;2023-05-07T17:46:51;128.00;;;79.30;;
35847;SDS011;22332;51.954;20.118;2023-05-07T17:49:57;91.70;;;56.00;;
35847;SDS011;22332;51.954;20.118;2023-05-07T17:53:04;41.80;;;27.80;;
35847;SDS011;22332;51.954;20.118;2023-05-07T17:56:11;29.60;;;17.20;;
35847;SDS011;22332;51.954;20.118;2023-05-07T17:59:17;14.00;;;8.20;;
35847;SDS011;22332;51.954;20.118;2023-05-07T18:02:22;10.80;;;6.40;;
35847;SDS011;22332;51.954;20.118;2023-05-07T18:05:28;6.60;;;4.70;;
35847;SDS011;22332;51.954;20.118;2023-05-07T18:08:34;6.70;;;4.30;;
35847;SDS011;22332;51.954;20.118;2023-05-07T18:11:39;8.40;;;4.40;;
35847;SDS011;22332;51.954;20.118;2023-05-07T18:14:45;6.20;;;4.30;;
35847;SDS011;22332;51.954;20.118;2023-05-07T18:17:50;8.60;;;4.10;;
35847;SDS011;22332;51.954;20.118;2023-05-07T18:20:56;7.50;;;4.00;;
35847;SDS011;22332;51.954;20.118;2023-05-07T18:24:02;6.50;;;4.00;;
35847;SDS011;22332;51.954;20.118;2023-05-07T18:27:09;8.00;;;4.50;;
35847;SDS011;22332;51.954;20.118;2023-05-07T18:30:15;6.20;;;4.20;;
35847;SDS011;22332;51.954;20.118;2023-05-07T18:33:21;6.50;;;4.10;;
35847;SDS011;22332;51.954;20.118;2023-05-07T18:36:26;8.20;;;4.10;;